createdAt,value
2023-05-14T00:01:31.538Z,101538.19
2023-05-14T00:03:58.169Z,101538.81
2023-05-14T00:06:25.452Z,101542.25
2023-05-14T00:08:51.784Z,101555.88
2023-05-14T00:11:18.244Z,101538.69
2023-05-14T00:13:44.688Z,101539.56
2023-05-14T00:16:11.829Z,101543.44
2023-05-14T00:18:38.577Z,101539.25
2023-05-14T00:21:05.119Z,101537.19
2023-05-14T00:23:31.549Z,101532.13
2023-05-14T00:25:58.023Z,101541.81
2023-05-14T00:28:24.477Z,101532.34
2023-05-14T00:30:51.454Z,101543.75
2023-05-14T00:33:17.902Z,101512.03
2023-05-14T00:35:44.386Z,101514.50
2023-05-14T00:38:17.157Z,101535.88
2023-05-14T00:40:45.926Z,101526.75
2023-05-14T00:43:12.541Z,101518.16
2023-05-14T00:45:39.263Z,101510.41
2023-05-14T00:48:05.872Z,101508.16
2023-05-14T00:50:32.330Z,101526.75
2023-05-14T00:52:58.887Z,101501.88
2023-05-14T00:55:25.996Z,101525.34
2023-05-14T00:57:54.712Z,101506.53
2023-05-14T01:00:21.417Z,101509.75
2023-05-14T01:02:51.364Z,101509.66
2023-05-14T01:05:18.311Z,101502.97
2023-05-14T01:08:05.313Z,101516.97
2023-05-14T01:11:06.515Z,101509.47
2023-05-14T01:13:48.292Z,101514.09
2023-05-14T01:16:19.052Z,101527.91
2023-05-14T01:18:48.503Z,101510.78
2023-05-14T01:21:43.524Z,101508.94
2023-05-14T01:24:09.998Z,101507.09
2023-05-14T01:26:36.954Z,101506.88
2023-05-14T01:29:16.569Z,101508.09
2023-05-14T01:31:46.067Z,101514.28
2023-05-14T01:34:14.735Z,101496.16
2023-05-14T01:51:47.976Z,101497.94
2023-05-14T01:54:14.481Z,101492.78
2023-05-14T01:56:40.987Z,101498.19
2023-05-14T01:59:07.517Z,101491.97
2023-05-14T02:01:34.203Z,101492.44
2023-05-14T02:04:01.227Z,101483.81
2023-05-14T02:06:27.729Z,101485.00
2023-05-14T02:08:54.200Z,101502.19
2023-05-14T02:11:21.889Z,101496.47
2023-05-14T02:13:48.337Z,101484.84
2023-05-14T02:16:14.851Z,101489.66
2023-05-14T02:18:41.432Z,101480.75
2023-05-14T02:21:07.909Z,101476.34
2023-05-14T02:23:41.519Z,101480.97
2023-05-14T02:26:10.103Z,101486.75
2023-05-14T02:28:36.554Z,101481.81
2023-05-14T02:31:03.119Z,101482.31
2023-05-14T02:33:29.638Z,101475.94
2023-05-14T02:35:56.171Z,101489.78
2023-05-14T02:38:23.212Z,101485.50
2023-05-14T02:40:49.752Z,101472.59
2023-05-14T02:43:16.217Z,101471.34
2023-05-14T02:45:43.103Z,101478.38
2023-05-14T02:48:09.664Z,101476.28
2023-05-14T02:50:36.168Z,101480.97
2023-05-14T02:53:02.614Z,101475.28
2023-05-14T02:55:29.274Z,101473.97
2023-05-14T02:57:56.846Z,101453.16
2023-05-14T03:00:23.748Z,101482.72
2023-05-14T03:02:50.899Z,101470.06
2023-05-14T03:05:17.934Z,101476.84
2023-05-14T03:07:44.374Z,101476.84
2023-05-14T03:10:10.912Z,101473.94
2023-05-14T03:12:37.380Z,101482.78
2023-05-14T03:15:03.997Z,101477.28
2023-05-14T03:17:30.542Z,101478.88
2023-05-14T03:19:57.033Z,101478.78
2023-05-14T03:22:23.476Z,101484.38
2023-05-14T03:24:49.900Z,101473.19
2023-05-14T03:27:16.380Z,101485.09
2023-05-14T03:29:42.829Z,101480.50
2023-05-14T03:32:09.376Z,101482.88
2023-05-14T03:34:36.063Z,101478.03
2023-05-14T03:37:02.529Z,101476.97
2023-05-14T03:39:29.033Z,101460.41
2023-05-14T03:41:57.260Z,101476.63
2023-05-14T03:44:23.746Z,101465.69
2023-05-14T03:46:50.319Z,101468.06
2023-05-14T03:49:16.776Z,101470.22
2023-05-14T03:51:43.354Z,101473.75
2023-05-14T03:54:10.507Z,101460.19
2023-05-14T03:56:37.044Z,101463.53
2023-05-14T03:59:03.470Z,101465.03
2023-05-14T04:01:30.117Z,101451.91
2023-05-14T04:03:56.742Z,101450.84
2023-05-14T04:06:23.247Z,101458.81
2023-05-14T04:08:49.785Z,101448.06
2023-05-14T04:11:16.218Z,101455.59
2023-05-14T04:13:42.732Z,101464.06
2023-05-14T04:16:09.179Z,101452.56
2023-05-14T04:18:35.854Z,101470.63
2023-05-14T04:21:02.921Z,101467.72
2023-05-14T04:23:29.705Z,101467.59
2023-05-14T04:25:56.067Z,101469.97
2023-05-14T04:28:22.558Z,101451.06
2023-05-14T04:30:49.475Z,101445.97
2023-05-14T04:33:15.919Z,101456.84
2023-05-14T04:35:42.333Z,101454.28
2023-05-14T04:38:09.180Z,101446.44
2023-05-14T04:40:35.565Z,101465.56
2023-05-14T04:43:02.039Z,101467.31
2023-05-14T04:45:28.472Z,101461.59
2023-05-14T04:47:55.053Z,101452.13
2023-05-14T04:50:22.102Z,101459.22
2023-05-14T04:52:48.758Z,101453.94
2023-05-14T04:55:15.295Z,101462.00
2023-05-14T04:57:41.740Z,101455.00
2023-05-14T05:00:10.084Z,101454.06
2023-05-14T05:02:36.670Z,101452.22
2023-05-14T05:05:06.109Z,101446.53
2023-05-14T05:07:32.582Z,101444.50
2023-05-14T05:09:59.075Z,101448.34
2023-05-14T05:12:26.068Z,101450.19
2023-05-14T05:14:52.523Z,101447.03
2023-05-14T05:17:18.960Z,101450.16
2023-05-14T05:19:45.541Z,101416.47
2023-05-14T05:22:12.074Z,101443.88
2023-05-14T05:24:38.568Z,101429.66
2023-05-14T05:27:05.621Z,101437.59
2023-05-14T05:29:32.316Z,101431.47
2023-05-14T05:31:59.204Z,101444.84
2023-05-14T05:34:25.705Z,101438.09
2023-05-14T05:36:52.200Z,101447.22
2023-05-14T05:39:18.636Z,101440.97
2023-05-14T05:41:45.140Z,101430.25
2023-05-14T05:44:11.619Z,101439.88
2023-05-14T05:46:38.105Z,101438.66
2023-05-14T05:49:04.533Z,101439.88
2023-05-14T05:51:31.543Z,101434.41
2023-05-14T05:54:00.922Z,101433.19
2023-05-14T05:56:28.425Z,101439.44
2023-05-14T05:58:54.825Z,101430.75
2023-05-14T06:01:21.286Z,101420.22
2023-05-14T06:03:48.850Z,101430.09
2023-05-14T06:06:15.753Z,101424.44
2023-05-14T06:08:42.258Z,101438.31
2023-05-14T06:11:08.979Z,101434.09
2023-05-14T06:13:35.450Z,101419.63
2023-05-14T06:16:02.130Z,101435.88
2023-05-14T06:18:28.704Z,101409.91
2023-05-14T06:20:56.843Z,101434.16
2023-05-14T06:23:23.334Z,101435.91
2023-05-14T06:25:53.645Z,101426.34
2023-05-14T06:28:20.234Z,101403.44
2023-05-14T06:30:49.892Z,101438.25
2023-05-14T06:33:17.015Z,101431.00
2023-05-14T06:35:45.991Z,101436.16
2023-05-14T06:38:12.475Z,101428.41
2023-05-14T06:40:38.920Z,101434.53
2023-05-14T06:43:06.771Z,101431.84
2023-05-14T06:45:33.395Z,101414.31
2023-05-14T06:48:00.101Z,101421.78
2023-05-14T06:50:26.563Z,101434.63
2023-05-14T06:52:52.998Z,101425.72
2023-05-14T06:55:19.466Z,101424.09
2023-05-14T06:57:46.070Z,101427.16
2023-05-14T07:00:14.397Z,101431.66
2023-05-14T07:02:40.909Z,101424.09
2023-05-14T07:05:08.651Z,101410.81
2023-05-14T07:07:35.217Z,101419.66
2023-05-14T07:10:01.778Z,101422.16
2023-05-14T07:12:28.262Z,101421.81
2023-05-14T07:14:54.694Z,101430.56
2023-05-14T07:17:21.165Z,101416.84
2023-05-14T07:19:47.724Z,101412.47
2023-05-14T07:22:14.761Z,101418.53
2023-05-14T07:24:41.284Z,101422.59
2023-05-14T07:27:08.653Z,101417.88
2023-05-14T07:29:35.202Z,101405.38
2023-05-14T07:32:01.979Z,101400.72
2023-05-14T07:34:28.356Z,101421.69
2023-05-14T07:36:55.225Z,101408.63
2023-05-14T07:39:21.660Z,101400.66
2023-05-14T07:41:48.059Z,101418.13
2023-05-14T07:44:14.608Z,101402.19
2023-05-14T07:46:42.596Z,101402.44
2023-05-14T07:49:09.050Z,101407.97
2023-05-14T07:51:35.482Z,101396.31
2023-05-14T07:54:02.072Z,101400.00
2023-05-14T07:56:28.712Z,101410.28
2023-05-14T07:58:55.255Z,101396.91
2023-05-14T08:01:21.849Z,101387.91
2023-05-14T08:03:48.608Z,101405.00
2023-05-14T08:06:15.301Z,101403.03
2023-05-14T08:08:41.760Z,101401.94
2023-05-14T08:11:08.570Z,101396.81
2023-05-14T08:13:39.445Z,101399.03
2023-05-14T08:16:07.088Z,101397.53
2023-05-14T08:18:33.506Z,101402.63
2023-05-14T08:21:01.015Z,101385.97
2023-05-14T08:23:28.692Z,101382.66
2023-05-14T08:25:55.226Z,101386.13
2023-05-14T08:28:21.681Z,101367.94
2023-05-14T08:30:48.169Z,101374.75
2023-05-14T08:33:14.748Z,101392.88
2023-05-14T08:35:41.332Z,101373.47
2023-05-14T08:38:07.823Z,101346.84
2023-05-14T08:40:35.471Z,101333.22
2023-05-14T08:43:02.649Z,101319.13
2023-05-14T08:45:35.229Z,101366.13
2023-05-14T08:48:06.870Z,101351.84
2023-05-14T08:50:33.751Z,101357.25
2023-05-14T08:53:00.475Z,101364.81
2023-05-14T08:55:28.406Z,101354.13
2023-05-14T08:57:54.898Z,101347.78
2023-05-14T09:00:21.688Z,101354.63
2023-05-14T09:02:49.249Z,101356.63
2023-05-14T09:05:18.384Z,101351.66
2023-05-14T09:07:45.691Z,101336.94
2023-05-14T09:10:12.133Z,101342.69
2023-05-14T09:12:38.767Z,101327.41
2023-05-14T09:15:07.703Z,101305.03
2023-05-14T09:17:34.938Z,101339.59
2023-05-14T09:20:01.686Z,101317.44
2023-05-14T09:22:31.872Z,101341.44
2023-05-14T09:25:07.100Z,101323.50
2023-05-14T09:27:34.409Z,101303.78
2023-05-14T09:30:12.225Z,101294.56
2023-05-14T09:32:44.259Z,101314.50
2023-05-14T09:35:11.538Z,101321.06
2023-05-14T09:37:38.073Z,101296.81
2023-05-14T09:40:09.193Z,101304.66
2023-05-14T09:42:35.690Z,101314.22
2023-05-14T09:45:03.255Z,101298.97
2023-05-14T09:47:30.019Z,101267.19
2023-05-14T09:49:56.786Z,101280.31
2023-05-14T09:52:27.412Z,101287.34
2023-05-14T09:54:54.265Z,101272.16
2023-05-14T09:57:21.174Z,101248.97
2023-05-14T09:59:49.997Z,101246.63
2023-05-14T10:02:21.359Z,101262.59
2023-05-14T10:04:49.767Z,101251.75
2023-05-14T10:07:19.027Z,101254.91
2023-05-14T10:09:46.750Z,101251.34
2023-05-14T10:12:20.084Z,101254.78
2023-05-14T10:14:53.266Z,101276.81
2023-05-14T10:17:22.125Z,101272.84
2023-05-14T10:19:54.574Z,101234.69
2023-05-14T10:22:32.555Z,101265.31
2023-05-14T10:24:59.857Z,101265.50
2023-05-14T10:27:27.030Z,101256.94
2023-05-14T10:29:55.205Z,101205.47
2023-05-14T10:32:33.089Z,101226.81
2023-05-14T10:35:01.707Z,101205.56
2023-05-14T10:37:30.138Z,101232.09
2023-05-14T10:40:02.748Z,101213.03
2023-05-14T10:42:35.863Z,101220.25
2023-05-14T10:45:07.444Z,101226.84
2023-05-14T10:47:40.442Z,101206.66
2023-05-14T10:50:09.878Z,101197.97
2023-05-14T10:52:36.849Z,101166.97
2023-05-14T10:55:58.575Z,101199.28
2023-05-14T10:59:38.279Z,101164.47
2023-05-14T11:01:45.082Z,101165.81
2023-05-14T11:04:19.481Z,101160.28
2023-05-14T11:06:47.451Z,101208.47
2023-05-14T11:09:17.793Z,101200.81
2023-05-14T11:11:44.230Z,101194.22
2023-05-14T11:14:10.788Z,101198.38
2023-05-14T11:16:37.956Z,101182.84
2023-05-14T11:19:05.123Z,101195.56
2023-05-14T11:21:32.927Z,101179.53
2023-05-14T11:24:00.812Z,101185.72
2023-05-14T11:26:27.330Z,101179.00
2023-05-14T11:28:53.976Z,101186.75
2023-05-14T11:31:22.357Z,101187.81
2023-05-14T11:33:48.919Z,101179.59
2023-05-14T11:36:15.400Z,101144.97
2023-05-14T11:38:49.064Z,101164.59
2023-05-14T11:41:16.146Z,101183.13
2023-05-14T11:43:42.948Z,101175.09
2023-05-14T11:46:16.008Z,101172.88
2023-05-14T11:48:42.516Z,101163.25
2023-05-14T11:51:08.956Z,101154.56
2023-05-14T11:53:35.497Z,101162.41
2023-05-14T11:56:03.191Z,101155.00
2023-05-14T11:58:33.974Z,101168.00
2023-05-14T12:01:00.541Z,101156.53
2023-05-14T12:03:29.483Z,101139.00
2023-05-14T12:05:59.507Z,101145.38
2023-05-14T12:08:28.556Z,101136.06
2023-05-14T12:10:56.313Z,101112.94
2023-05-14T12:13:27.117Z,101122.13
2023-05-14T12:16:02.308Z,101149.50
2023-05-14T12:18:31.092Z,101139.31
2023-05-14T12:21:04.730Z,101137.19
2023-05-14T12:23:32.523Z,101149.84
2023-05-14T12:26:06.491Z,101104.22
2023-05-14T12:28:36.859Z,101104.84
2023-05-14T12:31:04.721Z,101120.28
2023-05-14T12:33:31.226Z,101124.16
2023-05-14T12:36:13.544Z,101110.31
2023-05-14T12:38:49.868Z,101087.56
2023-05-14T12:41:20.287Z,101111.38
2023-05-14T12:43:49.427Z,101100.44
2023-05-14T12:46:16.677Z,101124.47
2023-05-14T12:48:43.557Z,101119.91
2023-05-14T12:51:10.498Z,101126.63
2023-05-14T12:53:37.065Z,101118.53
2023-05-14T12:56:03.849Z,101109.00
2023-05-14T12:58:30.314Z,101109.34
2023-05-14T13:00:57.030Z,101068.25
2023-05-14T13:03:23.744Z,101108.28
2023-05-14T13:05:55.736Z,101090.28
2023-05-14T13:08:25.051Z,101059.72
2023-05-14T13:11:00.676Z,101068.47
2023-05-14T13:13:29.832Z,101061.66
2023-05-14T13:15:56.753Z,101069.69
2023-05-14T13:18:23.308Z,101068.31
2023-05-14T13:20:49.828Z,101082.44
2023-05-14T13:23:19.308Z,101078.88
2023-05-14T13:25:46.899Z,101061.84
2023-05-14T13:28:15.068Z,101049.25
2023-05-14T13:30:41.563Z,101070.00
2023-05-14T13:33:09.118Z,101035.19
2023-05-14T13:35:35.773Z,101049.16
2023-05-14T13:38:02.231Z,101069.22
2023-05-14T13:40:28.728Z,101059.19
2023-05-14T13:42:55.327Z,101055.19
2023-05-14T13:45:22.180Z,101062.66
2023-05-14T13:47:49.665Z,101023.84
2023-05-14T13:50:18.326Z,101058.00
2023-05-14T13:52:44.835Z,101054.50
2023-05-14T13:55:11.319Z,101045.13
2023-05-14T13:57:39.880Z,101014.19
2023-05-14T14:00:07.420Z,101010.91
2023-05-14T14:02:34.324Z,101032.09
2023-05-14T14:05:01.268Z,101000.19
2023-05-14T14:07:31.216Z,101037.53
2023-05-14T14:09:57.852Z,101041.88
2023-05-14T14:12:24.544Z,101034.72
2023-05-14T14:14:51.158Z,101018.81
2023-05-14T14:17:18.041Z,101031.09
2023-05-14T14:23:32.406Z,101013.75
2023-05-14T14:25:59.438Z,101005.72
2023-05-14T14:28:26.349Z,100973.66
2023-05-14T14:30:52.889Z,100996.56
2023-05-14T14:33:20.501Z,100977.00
2023-05-14T14:35:47.037Z,101011.97
2023-05-14T14:38:14.250Z,101014.44
2023-05-14T14:40:40.880Z,100975.72
2023-05-14T14:43:07.380Z,101013.88
2023-05-14T14:45:34.275Z,100983.47
2023-05-14T14:48:24.124Z,101000.28
2023-05-14T14:50:52.065Z,101003.28
2023-05-14T14:53:19.966Z,101001.88
2023-05-14T14:55:47.221Z,101004.06
2023-05-14T14:58:13.748Z,100992.69
2023-05-14T15:00:40.538Z,101006.72
2023-05-14T15:03:09.299Z,100974.81
2023-05-14T15:05:35.973Z,100979.47
2023-05-14T15:08:10.796Z,100998.47
2023-05-14T15:10:38.363Z,100983.00
2023-05-14T15:13:06.436Z,100999.84
2023-05-14T15:15:34.600Z,100981.63
2023-05-14T15:18:01.614Z,100994.31
2023-05-14T15:20:28.323Z,100984.25
2023-05-14T15:22:55.506Z,100987.38
2023-05-14T15:25:23.704Z,100981.16
2023-05-14T15:27:50.823Z,100984.88
2023-05-14T15:30:17.292Z,100983.03
2023-05-14T15:32:45.244Z,100972.22
2023-05-14T15:35:11.945Z,100974.63
2023-05-14T15:37:39.490Z,100975.16
2023-05-14T15:40:10.320Z,100963.84
2023-05-14T15:42:43.824Z,100973.78
2023-05-14T15:45:12.459Z,100975.81
2023-05-14T15:47:39.699Z,100973.31
2023-05-14T15:50:07.035Z,100967.50
2023-05-14T15:52:34.932Z,100957.78
2023-05-14T15:55:01.585Z,100945.16
2023-05-14T15:57:28.123Z,100945.59
2023-05-14T15:59:54.634Z,100938.88
2023-05-14T16:02:21.105Z,100946.09
2023-05-14T16:04:49.475Z,100939.41
2023-05-14T16:07:16.439Z,100945.03
2023-05-14T16:09:45.612Z,100932.13
2023-05-14T16:12:12.481Z,100944.09
2023-05-14T16:14:41.234Z,100931.66
2023-05-14T16:17:08.592Z,100939.22
2023-05-14T16:19:34.956Z,100937.16
2023-05-14T16:22:01.377Z,100934.78
2023-05-14T16:24:27.850Z,100938.63
2023-05-14T16:26:55.120Z,100923.75
2023-05-14T16:29:21.598Z,100932.78
2023-05-14T16:31:48.103Z,100926.75
2023-05-14T16:34:14.603Z,100923.97
2023-05-14T16:36:41.275Z,100923.63
2023-05-14T16:39:08.630Z,100933.88
2023-05-14T16:41:35.674Z,100924.50
2023-05-14T16:44:02.516Z,100907.84
2023-05-14T16:46:29.245Z,100913.41
2023-05-14T16:48:56.229Z,100908.69
2023-05-14T16:51:22.677Z,100911.88
2023-05-14T16:53:49.270Z,100900.47
2023-05-14T16:56:15.735Z,100915.22
2023-05-14T16:58:42.230Z,100898.25
2023-05-14T17:01:09.790Z,100924.00
2023-05-14T17:03:36.793Z,100915.59
2023-05-14T17:06:03.554Z,100919.28
2023-05-14T17:08:33.698Z,100917.44
2023-05-14T17:11:00.277Z,100908.28
2023-05-14T17:13:26.716Z,100913.59
2023-05-14T17:15:53.335Z,100900.53
2023-05-14T17:18:19.865Z,100914.97
2023-05-14T17:20:46.399Z,100898.22
2023-05-14T17:23:13.008Z,100908.13
2023-05-14T17:25:39.467Z,100909.38
2023-05-14T17:28:15.916Z,100911.47
2023-05-14T17:30:42.390Z,100900.53
2023-05-14T17:33:08.959Z,100896.53
2023-05-14T17:35:36.507Z,100895.31
2023-05-14T17:38:03.631Z,100889.19
2023-05-14T17:40:30.184Z,100908.84
2023-05-14T17:42:56.669Z,100896.63
2023-05-14T17:45:23.443Z,100905.59
2023-05-14T17:47:51.421Z,100878.56
2023-05-14T17:50:18.813Z,100903.94
2023-05-14T17:52:46.191Z,100913.25
2023-05-14T17:55:12.726Z,100910.44
2023-05-14T17:57:39.223Z,100911.66
2023-05-14T18:00:06.466Z,100918.16
2023-05-14T18:02:33.093Z,100907.94
2023-05-14T18:05:03.091Z,100911.94
2023-05-14T18:07:30.730Z,100913.97
2023-05-14T18:09:57.696Z,100903.72
2023-05-14T18:12:27.787Z,100911.59
2023-05-14T18:14:54.612Z,100911.38
2023-05-14T18:17:21.276Z,100894.38
2023-05-14T18:19:48.442Z,100914.72
2023-05-14T18:22:15.593Z,100905.94
2023-05-14T18:24:44.127Z,100914.06
2023-05-14T18:27:10.727Z,100919.06
2023-05-14T18:29:37.167Z,100917.50
2023-05-14T18:32:03.894Z,100901.47
2023-05-14T18:34:30.339Z,100927.38
2023-05-14T18:36:57.628Z,100926.44
2023-05-14T18:39:24.097Z,100919.03
2023-05-14T18:41:50.584Z,100916.63
2023-05-14T18:44:17.013Z,100923.44
2023-05-14T18:46:43.607Z,100923.59
2023-05-14T18:49:09.990Z,100932.97
2023-05-14T18:51:36.460Z,100936.97
2023-05-14T18:54:03.205Z,100930.16
2023-05-14T18:56:29.628Z,100932.13
2023-05-14T18:58:56.132Z,100926.31
2023-05-14T19:01:25.447Z,100924.63
2023-05-14T19:03:53.031Z,100922.91
2023-05-14T19:06:19.839Z,100919.91
2023-05-14T19:08:46.446Z,100921.63
2023-05-14T19:11:12.910Z,100913.69
2023-05-14T19:13:39.420Z,100931.72
2023-05-14T19:16:06.418Z,100925.91
2023-05-14T19:18:32.943Z,100919.34
2023-05-14T19:21:00.000Z,100919.50
2023-05-14T19:23:26.486Z,100926.31
2023-05-14T19:25:53.063Z,100919.78
2023-05-14T19:28:19.942Z,100920.63
2023-05-14T19:30:46.398Z,100927.03
2023-05-14T19:33:15.756Z,100928.19
2023-05-14T19:35:42.295Z,100915.22
2023-05-14T19:38:10.790Z,100915.38
2023-05-14T19:40:37.221Z,100914.38
2023-05-14T19:43:03.706Z,100918.50
2023-05-14T19:45:30.207Z,100925.44
2023-05-14T19:47:56.955Z,100916.63
2023-05-14T19:50:23.361Z,100924.16
2023-05-14T19:52:49.848Z,100922.16
2023-05-14T19:55:16.387Z,100901.41
2023-05-14T19:57:42.866Z,100890.72
2023-05-14T20:00:10.539Z,100899.72
2023-05-14T20:02:37.145Z,100910.94
2023-05-14T20:05:03.825Z,100880.00
2023-05-14T20:07:30.276Z,100889.28
2023-05-14T20:09:56.854Z,100891.69
2023-05-14T20:12:23.710Z,100860.88
2023-05-14T20:14:50.192Z,100891.19
2023-05-14T20:17:16.785Z,100905.25
2023-05-14T20:19:43.810Z,100886.81
2023-05-14T20:22:10.386Z,100894.75
2023-05-14T20:24:36.908Z,100880.59
2023-05-14T20:27:03.566Z,100899.25
2023-05-14T20:29:30.346Z,100894.84
2023-05-14T20:31:56.939Z,100898.66
2023-05-14T20:34:25.673Z,100897.03
2023-05-14T20:37:27.672Z,100884.22
2023-05-14T20:39:59.769Z,100864.31
2023-05-14T20:42:27.165Z,100839.34
2023-05-14T20:44:59.659Z,100831.38
2023-05-14T20:47:30.752Z,100834.06
2023-05-14T20:50:04.077Z,100856.97
2023-05-14T20:52:31.291Z,100816.25
2023-05-14T20:55:00.855Z,100815.38
2023-05-14T20:57:41.639Z,100822.47
2023-05-14T21:00:13.946Z,100831.19
2023-05-14T21:02:41.140Z,100846.00
2023-05-14T21:05:08.252Z,100818.06
2023-05-14T21:07:38.342Z,100849.91
2023-05-14T21:10:14.863Z,100811.66
2023-05-14T21:12:47.286Z,100843.88
2023-05-14T21:15:19.610Z,100847.13
2023-05-14T21:17:52.744Z,100851.75
2023-05-14T21:20:20.122Z,100806.13
2023-05-14T21:22:55.183Z,100825.16
2023-05-14T21:25:34.178Z,100810.72
2023-05-14T21:28:07.381Z,100818.00
2023-05-14T21:33:15.811Z,100790.63
2023-05-14T21:35:42.532Z,100813.56
2023-05-14T21:38:09.281Z,100828.97
2023-05-14T21:40:35.873Z,100834.78
2023-05-14T21:43:02.929Z,100831.84
2023-05-14T21:45:29.806Z,100812.63
2023-05-14T21:47:56.368Z,100849.22
2023-05-14T21:50:23.122Z,100827.88
2023-05-14T21:52:49.805Z,100814.03
2023-05-14T21:55:16.358Z,100807.72
2023-05-14T21:57:43.059Z,100799.31
2023-05-14T22:00:12.774Z,100831.81
2023-05-14T22:02:39.863Z,100815.69
2023-05-14T22:05:06.579Z,100827.88
2023-05-14T22:07:33.294Z,100803.75
2023-05-14T22:09:59.965Z,100816.09
2023-05-14T22:12:26.917Z,100821.03
2023-05-14T22:14:53.558Z,100777.16
2023-05-14T22:17:20.256Z,100806.19
2023-05-14T22:19:46.931Z,100814.84
2023-05-14T22:22:13.504Z,100810.59
2023-05-14T22:24:40.181Z,100767.47
2023-05-14T22:27:06.804Z,100807.50
2023-05-14T22:29:33.279Z,100817.47
2023-05-14T22:31:59.804Z,100797.88
2023-05-14T22:34:26.417Z,100756.66
2023-05-14T22:36:53.160Z,100779.47
2023-05-14T22:39:19.666Z,100795.19
2023-05-14T22:41:46.198Z,100792.09
2023-05-14T22:44:12.651Z,100777.91
2023-05-14T22:46:39.202Z,100779.41
2023-05-14T22:49:05.933Z,100782.78
2023-05-14T22:51:32.822Z,100759.56
2023-05-14T22:53:59.390Z,100759.16
2023-05-14T22:56:25.909Z,100790.38
2023-05-14T22:58:52.458Z,100775.88
2023-05-14T23:01:19.088Z,100754.28
2023-05-14T23:03:45.642Z,100787.47
2023-05-14T23:06:14.591Z,100765.56
2023-05-14T23:08:41.163Z,100740.41
2023-05-14T23:11:07.733Z,100735.59
2023-05-14T23:13:34.388Z,100740.84
2023-05-14T23:16:00.965Z,100776.34
2023-05-14T23:18:27.828Z,100758.06
2023-05-14T23:20:54.610Z,100743.28
2023-05-14T23:23:21.217Z,100764.91
2023-05-14T23:25:50.166Z,100716.72
2023-05-14T23:28:17.297Z,100720.00
2023-05-14T23:30:44.038Z,100731.94
2023-05-14T23:33:10.797Z,100753.88
2023-05-14T23:35:39.038Z,100752.22
2023-05-14T23:38:06.293Z,100725.25
2023-05-14T23:40:33.955Z,100746.22
2023-05-14T23:43:01.214Z,100739.75
2023-05-14T23:45:28.165Z,100708.84
2023-05-14T23:47:56.578Z,100696.66
2023-05-14T23:50:23.222Z,100690.09
2023-05-14T23:52:53.476Z,100692.69
2023-05-14T23:55:20.626Z,100709.88
2023-05-14T23:57:47.717Z,100683.88
